sensor_id;sensor_type;location;lat;lon;timestamp;pressure;altitude;pressure_sealevel;temperature;humidity
37856;BME280;23694;43.274;26.924;2023-07-31T00:00:35;98265.94;;;22.11;53.95
37856;BME280;23694;43.274;26.924;2023-07-31T00:03:01;98255.06;;;22.12;53.53
37856;BME280;23694;43.274;26.924;2023-07-31T00:05:27;98258.69;;;22.05;53.13
37856;BME280;23694;43.274;26.924;2023-07-31T00:07:53;98274.69;;;22.05;52.92
37856;BME280;23694;43.274;26.924;2023-07-31T00:10:22;98285.25;;;21.98;52.94
37856;BME280;23694;43.274;26.924;2023-07-31T00:12:48;98295.88;;;21.92;53.12
37856;BME280;23694;43.274;26.924;2023-07-31T00:15:14;98338.16;;;21.73;53.28
37856;BME280;23694;43.274;26.924;2023-07-31T00:17:40;98308.28;;;21.57;52.46
37856;BME280;23694;43.274;26.924;2023-07-31T00:20:07;98305.94;;;21.47;51.66
37856;BME280;23694;43.274;26.924;2023-07-31T00:22:33;98297.94;;;21.47;50.86
37856;BME280;23694;43.274;26.924;2023-07-31T00:24:59;98300.53;;;21.62;50.55
37856;BME280;23694;43.274;26.924;2023-07-31T00:27:25;98313.41;;;21.79;49.56
37856;BME280;23694;43.274;26.924;2023-07-31T00:29:51;98317.59;;;21.89;49.11
37856;BME280;23694;43.274;26.924;2023-07-31T00:32:17;98284.72;;;22.03;48.49
37856;BME280;23694;43.274;26.924;2023-07-31T00:34:43;98268.88;;;22.01;48.34
37856;BME280;23694;43.274;26.924;2023-07-31T00:37:10;98292.34;;;22.06;48.60
37856;BME280;23694;43.274;26.924;2023-07-31T00:39:36;98296.97;;;22.19;48.59
37856;BME280;23694;43.274;26.924;2023-07-31T00:42:02;98266.41;;;22.21;48.21
37856;BME280;23694;43.274;26.924;2023-07-31T00:44:28;98260.50;;;22.26;47.98
37856;BME280;23694;43.274;26.924;2023-07-31T00:46:55;98268.97;;;22.36;47.57
37856;BME280;23694;43.274;26.924;2023-07-31T00:49:22;98256.66;;;22.35;47.60
37856;BME280;23694;43.274;26.924;2023-07-31T00:51:48;98267.94;;;22.37;47.64
37856;BME280;23694;43.274;26.924;2023-07-31T00:54:15;98267.13;;;22.36;47.86
37856;BME280;23694;43.274;26.924;2023-07-31T00:56:41;98256.47;;;21.87;48.75
37856;BME280;23694;43.274;26.924;2023-07-31T00:59:10;98253.94;;;21.79;47.43
37856;BME280;23694;43.274;26.924;2023-07-31T01:01:36;98249.97;;;21.96;47.33
37856;BME280;23694;43.274;26.924;2023-07-31T01:04:02;98254.53;;;22.24;47.19
37856;BME280;23694;43.274;26.924;2023-07-31T01:12:04;98261.44;;;22.46;46.35
37856;BME280;23694;43.274;26.924;2023-07-31T01:14:32;98251.75;;;22.38;46.94
37856;BME280;23694;43.274;26.924;2023-07-31T01:16:58;98249.81;;;22.26;46.69
37856;BME280;23694;43.274;26.924;2023-07-31T01:19:26;98260.19;;;22.42;46.59
37856;BME280;23694;43.274;26.924;2023-07-31T01:28:04;98269.88;;;22.50;47.19
37856;BME280;23694;43.274;26.924;2023-07-31T01:30:33;98267.16;;;22.43;47.72
37856;BME280;23694;43.274;26.924;2023-07-31T01:33:02;98263.66;;;22.42;48.30
37856;BME280;23694;43.274;26.924;2023-07-31T01:35:36;98272.41;;;22.30;49.74
37856;BME280;23694;43.274;26.924;2023-07-31T01:38:03;98271.94;;;22.20;50.12
37856;BME280;23694;43.274;26.924;2023-07-31T01:40:30;98276.75;;;22.09;50.73
37856;BME280;23694;43.274;26.924;2023-07-31T01:42:56;98272.66;;;21.86;51.13
37856;BME280;23694;43.274;26.924;2023-07-31T01:45:22;98275.03;;;21.74;51.63
37856;BME280;23694;43.274;26.924;2023-07-31T01:47:48;98285.88;;;21.72;51.78
37856;BME280;23694;43.274;26.924;2023-07-31T01:50:14;98285.78;;;21.44;53.27
37856;BME280;23694;43.274;26.924;2023-07-31T01:52:40;98292.88;;;21.52;53.35
37856;BME280;23694;43.274;26.924;2023-07-31T01:55:07;98283.84;;;21.17;54.79
37856;BME280;23694;43.274;26.924;2023-07-31T01:57:33;98290.41;;;20.70;57.66
37856;BME280;23694;43.274;26.924;2023-07-31T01:59:59;98282.63;;;20.54;60.07
37856;BME280;23694;43.274;26.924;2023-07-31T02:02:25;98281.72;;;20.47;60.65
37856;BME280;23694;43.274;26.924;2023-07-31T02:04:51;98289.13;;;20.66;60.55
37856;BME280;23694;43.274;26.924;2023-07-31T02:07:17;98286.84;;;20.93;59.74
37856;BME280;23694;43.274;26.924;2023-07-31T02:09:43;98289.13;;;20.96;59.66
37856;BME280;23694;43.274;26.924;2023-07-31T02:12:09;98274.81;;;20.97;59.79
37856;BME280;23694;43.274;26.924;2023-07-31T02:14:35;98280.22;;;20.74;60.88
37856;BME280;23694;43.274;26.924;2023-07-31T02:17:01;98289.50;;;20.78;61.15
37856;BME280;23694;43.274;26.924;2023-07-31T02:19:28;98283.91;;;20.73;61.55
37856;BME280;23694;43.274;26.924;2023-07-31T02:21:54;98284.28;;;20.84;60.87
37856;BME280;23694;43.274;26.924;2023-07-31T02:24:20;98288.75;;;20.99;60.00
37856;BME280;23694;43.274;26.924;2023-07-31T02:26:46;98286.13;;;21.20;59.21
37856;BME280;23694;43.274;26.924;2023-07-31T02:29:12;98277.69;;;21.16;58.33
37856;BME280;23694;43.274;26.924;2023-07-31T02:31:38;98291.81;;;21.32;57.62
37856;BME280;23694;43.274;26.924;2023-07-31T02:34:04;98289.66;;;21.42;56.95
37856;BME280;23694;43.274;26.924;2023-07-31T02:36:30;98281.75;;;21.48;56.45
37856;BME280;23694;43.274;26.924;2023-07-31T02:38:56;98273.19;;;21.53;56.08
37856;BME280;23694;43.274;26.924;2023-07-31T02:41:22;98277.38;;;21.62;55.31
37856;BME280;23694;43.274;26.924;2023-07-31T02:43:48;98282.97;;;21.67;55.02
37856;BME280;23694;43.274;26.924;2023-07-31T02:46:14;98272.63;;;21.58;56.67
37856;BME280;23694;43.274;26.924;2023-07-31T02:48:40;98278.06;;;21.71;56.75
37856;BME280;23694;43.274;26.924;2023-07-31T02:51:06;98274.72;;;21.62;57.07
37856;BME280;23694;43.274;26.924;2023-07-31T02:53:32;98275.41;;;21.49;58.63
37856;BME280;23694;43.274;26.924;2023-07-31T02:55:58;98273.69;;;21.42;59.57
37856;BME280;23694;43.274;26.924;2023-07-31T02:58:24;98276.78;;;21.24;60.73
37856;BME280;23694;43.274;26.924;2023-07-31T03:00:50;98277.50;;;21.18;61.24
37856;BME280;23694;43.274;26.924;2023-07-31T03:03:16;98272.91;;;21.27;61.23
37856;BME280;23694;43.274;26.924;2023-07-31T03:05:42;98276.72;;;21.39;60.68
37856;BME280;23694;43.274;26.924;2023-07-31T03:08:08;98278.47;;;21.46;60.41
37856;BME280;23694;43.274;26.924;2023-07-31T03:10:34;98276.16;;;21.65;60.11
37856;BME280;23694;43.274;26.924;2023-07-31T03:13:00;98282.28;;;21.59;60.71
37856;BME280;23694;43.274;26.924;2023-07-31T03:15:26;98278.91;;;21.50;61.40
37856;BME280;23694;43.274;26.924;2023-07-31T03:17:52;98274.22;;;21.52;61.84
37856;BME280;23694;43.274;26.924;2023-07-31T03:20:18;98274.78;;;21.69;61.56
37856;BME280;23694;43.274;26.924;2023-07-31T03:22:44;98273.50;;;21.65;62.08
37856;BME280;23694;43.274;26.924;2023-07-31T03:25:10;98268.44;;;21.70;62.46
37856;BME280;23694;43.274;26.924;2023-07-31T03:27:36;98271.84;;;21.85;61.86
37856;BME280;23694;43.274;26.924;2023-07-31T03:30:03;98270.28;;;21.97;62.26
37856;BME280;23694;43.274;26.924;2023-07-31T03:32:29;98274.56;;;22.13;62.35
37856;BME280;23694;43.274;26.924;2023-07-31T03:34:55;98275.47;;;22.27;62.24
37856;BME280;23694;43.274;26.924;2023-07-31T03:37:21;98282.69;;;22.33;61.95
37856;BME280;23694;43.274;26.924;2023-07-31T03:39:47;98280.91;;;22.12;61.61
37856;BME280;23694;43.274;26.924;2023-07-31T03:42:13;98278.91;;;21.99;63.43
37856;BME280;23694;43.274;26.924;2023-07-31T03:44:40;98284.19;;;21.93;63.61
37856;BME280;23694;43.274;26.924;2023-07-31T03:47:06;98279.69;;;21.93;63.97
37856;BME280;23694;43.274;26.924;2023-07-31T03:49:32;98275.44;;;21.99;64.36
37856;BME280;23694;43.274;26.924;2023-07-31T03:51:58;98280.75;;;21.99;64.58
37856;BME280;23694;43.274;26.924;2023-07-31T03:54:24;98282.63;;;21.77;64.26
37856;BME280;23694;43.274;26.924;2023-07-31T03:56:50;98293.06;;;21.50;65.20
37856;BME280;23694;43.274;26.924;2023-07-31T03:59:16;98300.50;;;21.40;64.72
37856;BME280;23694;43.274;26.924;2023-07-31T04:01:42;98295.19;;;20.60;68.57
37856;BME280;23694;43.274;26.924;2023-07-31T04:04:08;98295.66;;;20.49;69.19
37856;BME280;23694;43.274;26.924;2023-07-31T04:06:34;98294.63;;;20.35;70.50
37856;BME280;23694;43.274;26.924;2023-07-31T04:09:02;98287.59;;;20.42;70.80
37856;BME280;23694;43.274;26.924;2023-07-31T04:11:28;98294.66;;;20.50;70.72
37856;BME280;23694;43.274;26.924;2023-07-31T04:13:54;98291.69;;;20.30;72.04
37856;BME280;23694;43.274;26.924;2023-07-31T04:16:20;98297.66;;;20.47;71.72
37856;BME280;23694;43.274;26.924;2023-07-31T04:18:46;98300.31;;;20.91;69.98
37856;BME280;23694;43.274;26.924;2023-07-31T04:21:12;98297.25;;;21.09;68.96
37856;BME280;23694;43.274;26.924;2023-07-31T04:23:38;98307.84;;;21.38;68.21
37856;BME280;23694;43.274;26.924;2023-07-31T04:26:05;98304.81;;;21.41;68.81
37856;BME280;23694;43.274;26.924;2023-07-31T04:28:31;98301.94;;;21.79;66.43
37856;BME280;23694;43.274;26.924;2023-07-31T04:30:57;98308.09;;;21.79;67.57
37856;BME280;23694;43.274;26.924;2023-07-31T04:33:23;98298.31;;;22.70;65.12
37856;BME280;23694;43.274;26.924;2023-07-31T04:35:51;98298.13;;;23.94;63.19
37856;BME280;23694;43.274;26.924;2023-07-31T04:38:21;98306.97;;;24.47;62.39
37856;BME280;23694;43.274;26.924;2023-07-31T04:40:47;98301.38;;;24.62;64.00
37856;BME280;23694;43.274;26.924;2023-07-31T04:43:13;98303.38;;;25.44;61.65
37856;BME280;23694;43.274;26.924;2023-07-31T04:45:44;98303.06;;;25.59;60.75
37856;BME280;23694;43.274;26.924;2023-07-31T04:48:11;98315.22;;;25.23;62.07
37856;BME280;23694;43.274;26.924;2023-07-31T04:50:37;98310.75;;;25.04;63.70
37856;BME280;23694;43.274;26.924;2023-07-31T04:53:03;98323.59;;;24.82;64.51
37856;BME280;23694;43.274;26.924;2023-07-31T04:55:29;98314.13;;;24.66;65.18
37856;BME280;23694;43.274;26.924;2023-07-31T04:57:55;98313.97;;;24.55;65.28
37856;BME280;23694;43.274;26.924;2023-07-31T05:00:21;98316.66;;;24.22;66.75
37856;BME280;23694;43.274;26.924;2023-07-31T05:02:47;98323.25;;;24.26;66.88
37856;BME280;23694;43.274;26.924;2023-07-31T05:05:13;98319.75;;;24.32;65.99
37856;BME280;23694;43.274;26.924;2023-07-31T05:07:39;98321.00;;;24.29;65.83
37856;BME280;23694;43.274;26.924;2023-07-31T05:10:05;98328.38;;;24.21;66.04
37856;BME280;23694;43.274;26.924;2023-07-31T05:12:32;98336.63;;;24.06;66.44
37856;BME280;23694;43.274;26.924;2023-07-31T05:14:58;98326.31;;;24.03;66.65
37856;BME280;23694;43.274;26.924;2023-07-31T05:17:24;98326.09;;;23.98;66.79
37856;BME280;23694;43.274;26.924;2023-07-31T05:19:50;98338.66;;;23.97;66.65
37856;BME280;23694;43.274;26.924;2023-07-31T05:22:16;98340.75;;;24.15;66.12
37856;BME280;23694;43.274;26.924;2023-07-31T05:24:42;98336.81;;;24.18;65.52
37856;BME280;23694;43.274;26.924;2023-07-31T05:27:08;98353.31;;;24.28;65.45
37856;BME280;23694;43.274;26.924;2023-07-31T05:29:35;98345.91;;;24.30;64.88
37856;BME280;23694;43.274;26.924;2023-07-31T05:32:01;98343.03;;;24.38;64.63
37856;BME280;23694;43.274;26.924;2023-07-31T05:34:28;98349.19;;;24.32;65.05
37856;BME280;23694;43.274;26.924;2023-07-31T05:36:54;98352.66;;;23.99;66.47
37856;BME280;23694;43.274;26.924;2023-07-31T05:39:20;98349.97;;;23.86;67.92
37856;BME280;23694;43.274;26.924;2023-07-31T05:41:46;98354.50;;;23.99;67.27
37856;BME280;23694;43.274;26.924;2023-07-31T05:44:12;98348.94;;;23.94;67.15
37856;BME280;23694;43.274;26.924;2023-07-31T05:46:38;98348.72;;;23.76;68.23
37856;BME280;23694;43.274;26.924;2023-07-31T05:49:04;98359.63;;;23.81;68.08
37856;BME280;23694;43.274;26.924;2023-07-31T05:51:30;98353.63;;;23.72;68.76
37856;BME280;23694;43.274;26.924;2023-07-31T05:53:56;98354.47;;;23.73;69.38
37856;BME280;23694;43.274;26.924;2023-07-31T05:56:22;98357.34;;;23.84;69.10
37856;BME280;23694;43.274;26.924;2023-07-31T05:58:48;98352.41;;;23.81;69.73
37856;BME280;23694;43.274;26.924;2023-07-31T06:01:16;98361.28;;;23.95;68.99
37856;BME280;23694;43.274;26.924;2023-07-31T06:03:42;98358.59;;;23.82;69.89
37856;BME280;23694;43.274;26.924;2023-07-31T06:06:08;98364.75;;;23.76;70.47
37856;BME280;23694;43.274;26.924;2023-07-31T06:08:35;98355.06;;;23.68;70.42
37856;BME280;23694;43.274;26.924;2023-07-31T06:11:01;98365.13;;;23.59;70.31
37856;BME280;23694;43.274;26.924;2023-07-31T06:13:27;98368.44;;;23.61;70.48
37856;BME280;23694;43.274;26.924;2023-07-31T06:15:53;98374.72;;;23.47;71.35
37856;BME280;23694;43.274;26.924;2023-07-31T06:18:19;98373.00;;;23.33;73.05
37856;BME280;23694;43.274;26.924;2023-07-31T06:20:45;98370.59;;;23.45;73.38
37856;BME280;23694;43.274;26.924;2023-07-31T06:23:11;98373.75;;;23.55;72.85
37856;BME280;23694;43.274;26.924;2023-07-31T06:25:37;98379.25;;;23.47;73.18
37856;BME280;23694;43.274;26.924;2023-07-31T06:28:03;98377.41;;;23.54;73.60
37856;BME280;23694;43.274;26.924;2023-07-31T06:30:29;98378.66;;;23.51;74.02
37856;BME280;23694;43.274;26.924;2023-07-31T06:32:55;98384.63;;;23.53;74.00
37856;BME280;23694;43.274;26.924;2023-07-31T06:35:21;98387.94;;;23.55;73.87
37856;BME280;23694;43.274;26.924;2023-07-31T06:37:47;98387.97;;;23.68;74.22
37856;BME280;23694;43.274;26.924;2023-07-31T06:40:13;98392.91;;;23.71;74.18
37856;BME280;23694;43.274;26.924;2023-07-31T06:42:39;98386.97;;;23.76;74.80
37856;BME280;23694;43.274;26.924;2023-07-31T06:45:06;98391.66;;;23.61;75.73
37856;BME280;23694;43.274;26.924;2023-07-31T06:47:32;98394.97;;;23.28;77.31
37856;BME280;23694;43.274;26.924;2023-07-31T06:49:58;98387.06;;;23.48;76.95
37856;BME280;23694;43.274;26.924;2023-07-31T06:52:24;98386.66;;;23.51;76.46
37856;BME280;23694;43.274;26.924;2023-07-31T06:55:19;98396.63;;;23.70;75.87
37856;BME280;23694;43.274;26.924;2023-07-31T06:57:46;98395.31;;;23.53;76.67
37856;BME280;23694;43.274;26.924;2023-07-31T07:00:13;98399.84;;;23.53;77.00
37856;BME280;23694;43.274;26.924;2023-07-31T07:02:39;98402.44;;;23.39;78.12
37856;BME280;23694;43.274;26.924;2023-07-31T07:05:06;98401.69;;;23.52;77.74
37856;BME280;23694;43.274;26.924;2023-07-31T07:07:32;98405.84;;;23.61;77.12
37856;BME280;23694;43.274;26.924;2023-07-31T07:09:58;98405.22;;;23.59;77.86
37856;BME280;23694;43.274;26.924;2023-07-31T07:12:30;98401.25;;;23.49;78.70
37856;BME280;23694;43.274;26.924;2023-07-31T07:14:56;98398.38;;;23.50;80.19
37856;BME280;23694;43.274;26.924;2023-07-31T07:17:29;98402.34;;;23.61;81.60
37856;BME280;23694;43.274;26.924;2023-07-31T07:19:59;98414.28;;;23.58;83.06
37856;BME280;23694;43.274;26.924;2023-07-31T07:22:26;98407.81;;;23.46;84.22
37856;BME280;23694;43.274;26.924;2023-07-31T07:24:53;98414.06;;;23.60;85.00
37856;BME280;23694;43.274;26.924;2023-07-31T07:27:19;98411.41;;;23.60;86.44
37856;BME280;23694;43.274;26.924;2023-07-31T07:29:46;98410.63;;;23.73;86.38
37856;BME280;23694;43.274;26.924;2023-07-31T07:32:12;98424.38;;;23.63;87.27
37856;BME280;23694;43.274;26.924;2023-07-31T07:34:38;98423.16;;;23.72;86.67
37856;BME280;23694;43.274;26.924;2023-07-31T07:37:05;98422.13;;;23.73;86.86
37856;BME280;23694;43.274;26.924;2023-07-31T07:39:31;98434.47;;;23.67;87.61
37856;BME280;23694;43.274;26.924;2023-07-31T07:41:57;98432.25;;;23.84;86.58
37856;BME280;23694;43.274;26.924;2023-07-31T07:44:23;98436.38;;;23.87;85.08
37856;BME280;23694;43.274;26.924;2023-07-31T07:46:49;98439.66;;;23.89;85.00
37856;BME280;23694;43.274;26.924;2023-07-31T07:49:15;98444.19;;;23.95;84.63
37856;BME280;23694;43.274;26.924;2023-07-31T07:51:41;98444.16;;;23.75;86.08
37856;BME280;23694;43.274;26.924;2023-07-31T07:54:07;98447.25;;;23.79;86.10
37856;BME280;23694;43.274;26.924;2023-07-31T07:56:33;98446.41;;;23.71;87.19
37856;BME280;23694;43.274;26.924;2023-07-31T07:59:01;98447.66;;;23.82;86.73
37856;BME280;23694;43.274;26.924;2023-07-31T08:01:28;98447.66;;;23.82;86.98
37856;BME280;23694;43.274;26.924;2023-07-31T08:03:54;98450.56;;;23.87;86.07
37856;BME280;23694;43.274;26.924;2023-07-31T08:06:20;98455.09;;;23.93;85.76
37856;BME280;23694;43.274;26.924;2023-07-31T08:08:46;98456.53;;;23.89;86.25
37856;BME280;23694;43.274;26.924;2023-07-31T08:11:12;98458.56;;;23.81;86.33
37856;BME280;23694;43.274;26.924;2023-07-31T08:13:38;98457.09;;;23.71;87.38
37856;BME280;23694;43.274;26.924;2023-07-31T08:16:04;98453.38;;;23.66;87.47
37856;BME280;23694;43.274;26.924;2023-07-31T08:18:31;98455.41;;;23.57;89.02
37856;BME280;23694;43.274;26.924;2023-07-31T08:20:58;98464.03;;;23.59;89.45
37856;BME280;23694;43.274;26.924;2023-07-31T08:23:24;98463.84;;;23.61;90.44
37856;BME280;23694;43.274;26.924;2023-07-31T08:25:50;98463.78;;;23.54;90.30
37856;BME280;23694;43.274;26.924;2023-07-31T08:28:16;98464.81;;;23.53;90.75
37856;BME280;23694;43.274;26.924;2023-07-31T08:30:42;98468.13;;;23.55;90.05
37856;BME280;23694;43.274;26.924;2023-07-31T08:33:09;98468.13;;;23.55;89.76
37856;BME280;23694;43.274;26.924;2023-07-31T08:35:35;98464.03;;;23.59;90.16
37856;BME280;23694;43.274;26.924;2023-07-31T08:38:01;98472.66;;;23.55;90.56
37856;BME280;23694;43.274;26.924;2023-07-31T08:40:27;98475.91;;;23.50;89.80
37856;BME280;23694;43.274;26.924;2023-07-31T08:42:55;98474.88;;;23.51;90.67
37856;BME280;23694;43.274;26.924;2023-07-31T08:45:28;98471.19;;;23.18;93.10
37856;BME280;23694;43.274;26.924;2023-07-31T08:47:55;98474.88;;;23.17;93.58
37856;BME280;23694;43.274;26.924;2023-07-31T08:50:22;98478.59;;;23.22;92.63
37856;BME280;23694;43.274;26.924;2023-07-31T08:52:49;98477.53;;;23.17;93.26
37856;BME280;23694;43.274;26.924;2023-07-31T08:55:16;98476.09;;;23.14;94.72
37856;BME280;23694;43.274;26.924;2023-07-31T08:57:43;98484.69;;;23.09;93.89
37856;BME280;23694;43.274;26.924;2023-07-31T09:00:10;98486.78;;;23.14;93.54
37856;BME280;23694;43.274;26.924;2023-07-31T09:02:54;98482.94;;;23.23;93.77
37856;BME280;23694;43.274;26.924;2023-07-31T09:05:21;98484.19;;;23.27;93.52
37856;BME280;23694;43.274;26.924;2023-07-31T09:07:49;98481.13;;;23.30;93.81
37856;BME280;23694;43.274;26.924;2023-07-31T09:10:16;98468.34;;;22.91;96.51
37856;BME280;23694;43.274;26.924;2023-07-31T09:12:42;98484.81;;;22.95;97.00
37856;BME280;23694;43.274;26.924;2023-07-31T09:15:09;98474.41;;;23.06;96.83
37856;BME280;23694;43.274;26.924;2023-07-31T09:17:37;98471.72;;;23.06;97.11
37856;BME280;23694;43.274;26.924;2023-07-31T09:20:20;98479.34;;;23.09;97.70
37856;BME280;23694;43.274;26.924;2023-07-31T09:22:48;98469.06;;;23.06;97.73
37856;BME280;23694;43.274;26.924;2023-07-31T09:25:25;98471.97;;;23.12;98.24
37856;BME280;23694;43.274;26.924;2023-07-31T09:28:03;98474.16;;;23.01;99.30
37856;BME280;23694;43.274;26.924;2023-07-31T09:30:29;98477.84;;;23.00;98.35
37856;BME280;23694;43.274;26.924;2023-07-31T09:33:03;98479.75;;;23.06;97.80
37856;BME280;23694;43.274;26.924;2023-07-31T09:35:33;98473.09;;;22.96;98.33
37856;BME280;23694;43.274;26.924;2023-07-31T09:38:03;98470.91;;;23.06;98.34
37856;BME280;23694;43.274;26.924;2023-07-31T09:40:31;98477.22;;;22.98;98.10
37856;BME280;23694;43.274;26.924;2023-07-31T09:43:02;98469.69;;;23.08;97.98
37856;BME280;23694;43.274;26.924;2023-07-31T09:45:30;98476.06;;;23.07;97.38
37856;BME280;23694;43.274;26.924;2023-07-31T09:47:56;98475.84;;;23.09;97.91
37856;BME280;23694;43.274;26.924;2023-07-31T09:50:24;98470.94;;;23.13;98.76
37856;BME280;23694;43.274;26.924;2023-07-31T09:52:51;98475.09;;;23.22;97.96
37856;BME280;23694;43.274;26.924;2023-07-31T09:55:18;98475.97;;;23.29;97.71
37856;BME280;23694;43.274;26.924;2023-07-31T09:57:47;98480.53;;;23.35;96.69
37856;BME280;23694;43.274;26.924;2023-07-31T10:00:18;98481.47;;;23.21;97.96
37856;BME280;23694;43.274;26.924;2023-07-31T10:02:45;98477.03;;;23.34;97.17
37856;BME280;23694;43.274;26.924;2023-07-31T10:05:14;98469.91;;;23.42;95.59
37856;BME280;23694;43.274;26.924;2023-07-31T10:08:03;98478.97;;;23.47;95.33
37856;BME280;23694;43.274;26.924;2023-07-31T10:10:29;98464.72;;;23.40;96.10
37856;BME280;23694;43.274;26.924;2023-07-31T10:12:56;98474.66;;;23.46;96.44
37856;BME280;23694;43.274;26.924;2023-07-31T10:15:23;98467.25;;;23.48;96.60
37856;BME280;23694;43.274;26.924;2023-07-31T10:17:53;98467.34;;;23.61;96.01
37856;BME280;23694;43.274;26.924;2023-07-31T10:20:20;98470.63;;;23.63;95.69
37856;BME280;23694;43.274;26.924;2023-07-31T10:22:47;98466.50;;;23.61;96.46
37856;BME280;23694;43.274;26.924;2023-07-31T10:25:18;98473.75;;;23.67;96.65
37856;BME280;23694;43.274;26.924;2023-07-31T10:27:47;98473.38;;;23.77;96.44
37856;BME280;23694;43.274;26.924;2023-07-31T10:30:16;98466.13;;;23.70;97.25
37856;BME280;23694;43.274;26.924;2023-07-31T10:32:44;98467.78;;;23.71;96.18
37856;BME280;23694;43.274;26.924;2023-07-31T10:35:11;98466.59;;;23.81;96.52
37856;BME280;23694;43.274;26.924;2023-07-31T10:40:18;98465.06;;;24.13;93.90
37856;BME280;23694;43.274;26.924;2023-07-31T10:42:54;98459.53;;;24.27;92.33
37856;BME280;23694;43.274;26.924;2023-07-31T10:45:41;98459.75;;;24.32;93.05
37856;BME280;23694;43.274;26.924;2023-07-31T10:48:15;98456.06;;;24.47;92.71
37856;BME280;23694;43.274;26.924;2023-07-31T10:50:48;98452.34;;;24.67;91.17
37856;BME280;23694;43.274;26.924;2023-07-31T10:53:25;98446.16;;;25.07;89.01
37856;BME280;23694;43.274;26.924;2023-07-31T10:55:51;98440.34;;;25.36;86.97
37856;BME280;23694;43.274;26.924;2023-07-31T10:58:19;98443.13;;;25.68;85.16
37856;BME280;23694;43.274;26.924;2023-07-31T11:00:47;98444.75;;;26.13;82.64
37856;BME280;23694;43.274;26.924;2023-07-31T11:03:17;98435.13;;;26.37;79.05
37856;BME280;23694;43.274;26.924;2023-07-31T11:06:12;98430.25;;;26.21;77.51
37856;BME280;23694;43.274;26.924;2023-07-31T11:08:43;98432.84;;;26.03;77.42
37856;BME280;23694;43.274;26.924;2023-07-31T11:11:11;98431.28;;;25.82;78.60
37856;BME280;23694;43.274;26.924;2023-07-31T11:13:44;98422.88;;;25.65;78.67
37856;BME280;23694;43.274;26.924;2023-07-31T11:16:11;98431.22;;;25.50;79.79
37856;BME280;23694;43.274;26.924;2023-07-31T11:18:42;98438.84;;;25.53;80.47
37856;BME280;23694;43.274;26.924;2023-07-31T11:21:13;98438.22;;;25.51;81.84
37856;BME280;23694;43.274;26.924;2023-07-31T11:23:39;98437.75;;;25.61;80.97
37856;BME280;23694;43.274;26.924;2023-07-31T11:26:06;98427.47;;;25.58;81.94
37856;BME280;23694;43.274;26.924;2023-07-31T11:28:34;98432.63;;;25.59;81.91
37856;BME280;23694;43.274;26.924;2023-07-31T11:31:01;98429.31;;;25.57;82.76
37856;BME280;23694;43.274;26.924;2023-07-31T11:33:27;98418.59;;;25.57;82.21
37856;BME280;23694;43.274;26.924;2023-07-31T11:35:53;98417.22;;;25.42;83.65
37856;BME280;23694;43.274;26.924;2023-07-31T11:40:53;98418.91;;;25.36;83.13
37856;BME280;23694;43.274;26.924;2023-07-31T11:43:20;98409.97;;;25.49;81.25
37856;BME280;23694;43.274;26.924;2023-07-31T11:45:48;98418.78;;;25.69;79.23
37856;BME280;23694;43.274;26.924;2023-07-31T11:48:29;98408.41;;;25.79;77.56
37856;BME280;23694;43.274;26.924;2023-07-31T11:51:00;98409.31;;;25.98;76.32
37856;BME280;23694;43.274;26.924;2023-07-31T11:55:59;98405.66;;;26.24;75.13
37856;BME280;23694;43.274;26.924;2023-07-31T11:58:28;98409.84;;;26.45;74.51
37856;BME280;23694;43.274;26.924;2023-07-31T12:00:55;98398.63;;;26.79;71.90
37856;BME280;23694;43.274;26.924;2023-07-31T12:03:22;98403.44;;;27.14;68.71
37856;BME280;23694;43.274;26.924;2023-07-31T12:05:48;98398.50;;;27.11;69.28
37856;BME280;23694;43.274;26.924;2023-07-31T12:08:14;98392.16;;;27.05;68.64
37856;BME280;23694;43.274;26.924;2023-07-31T12:10:42;98390.25;;;26.69;69.82
37856;BME280;23694;43.274;26.924;2023-07-31T12:13:19;98389.78;;;26.72;70.35
37856;BME280;23694;43.274;26.924;2023-07-31T12:15:46;98384.25;;;27.10;70.17
37856;BME280;23694;43.274;26.924;2023-07-31T12:18:14;98373.25;;;27.48;67.88
37856;BME280;23694;43.274;26.924;2023-07-31T12:20:44;98374.47;;;27.83;66.75
37856;BME280;23694;43.274;26.924;2023-07-31T12:23:25;98373.97;;;28.04;63.96
37856;BME280;23694;43.274;26.924;2023-07-31T12:28:38;98369.06;;;28.89;61.80
37856;BME280;23694;43.274;26.924;2023-07-31T12:31:05;98368.75;;;29.14;59.35
37856;BME280;23694;43.274;26.924;2023-07-31T12:33:33;98359.72;;;29.32;57.78
37856;BME280;23694;43.274;26.924;2023-07-31T12:36:06;98351.16;;;29.23;56.72
37856;BME280;23694;43.274;26.924;2023-07-31T12:38:32;98352.75;;;28.96;57.61
37856;BME280;23694;43.274;26.924;2023-07-31T12:40:59;98350.28;;;28.48;58.55
37856;BME280;23694;43.274;26.924;2023-07-31T12:43:25;98347.34;;;27.96;60.48
37856;BME280;23694;43.274;26.924;2023-07-31T12:45:51;98357.25;;;27.54;63.57
37856;BME280;23694;43.274;26.924;2023-07-31T12:48:17;98345.22;;;27.86;62.13
37856;BME280;23694;43.274;26.924;2023-07-31T12:50:43;98341.25;;;27.89;61.99
37856;BME280;23694;43.274;26.924;2023-07-31T12:53:09;98336.66;;;27.77;62.84
37856;BME280;23694;43.274;26.924;2023-07-31T12:55:35;98338.50;;;27.65;61.93
37856;BME280;23694;43.274;26.924;2023-07-31T12:58:03;98345.91;;;27.82;61.84
37856;BME280;23694;43.274;26.924;2023-07-31T13:00:29;98345.72;;;27.16;63.98
37856;BME280;23694;43.274;26.924;2023-07-31T13:02:55;98336.69;;;27.11;64.42
37856;BME280;23694;43.274;26.924;2023-07-31T13:05:22;98339.34;;;27.47;62.78
37856;BME280;23694;43.274;26.924;2023-07-31T13:07:48;98337.97;;;27.87;62.03
37856;BME280;23694;43.274;26.924;2023-07-31T13:10:14;98343.00;;;28.36;60.22
37856;BME280;23694;43.274;26.924;2023-07-31T13:12:40;98347.59;;;28.71;59.91